Time;durP1;ratioP1;P1;durP2;ratioP2;P2;SDS_P1;SDS_P2;PMS_P1;PMS_P2;Temp;Humidity;BMP_temperature;BMP_pressure;BME280_temperature;BME280_humidity;BME280_pressure;Samples;Min_cycle;Max_cycle;Signal;HPM_P1;HPM_P2
2024/01/30 00:00:54;;;;;;;14.02;2.90;;;;;;;16.19;100.00;101216.19;5008637;28;20033;-47
2024/01/30 00:03:19;;;;;;;5.68;2.28;;;;;;;15.81;100.00;101212.34;5022122;28;20017;-46
2024/01/30 00:05:44;;;;;;;9.50;3.00;;;;;;;16.16;100.00;101217.44;5017738;28;20037;-44
2024/01/30 00:08:10;;;;;;;8.10;1.75;;;;;;;16.04;100.00;101225.25;5019839;28;20057;-47
2024/01/30 00:10:36;;;;;;;6.18;1.20;;;;;;;16.07;100.00;101214.16;5015701;28;20048;-46
2024/01/30 00:13:02;;;;;;;1.80;0.50;;;;;;;16.09;100.00;101216.63;5021373;28;20025;-47
2024/01/30 00:15:27;;;;;;;2.15;0.43;;;;;;;16.10;100.00;101203.03;5021936;28;20597;-44
2024/01/30 00:17:53;;;;;;;4.47;1.35;;;;;;;15.84;100.00;101203.91;5017802;28;20025;-47
2024/01/30 00:20:18;;;;;;;5.55;0.73;;;;;;;16.00;100.00;101202.63;5020206;28;20037;-44
2024/01/30 00:22:44;;;;;;;4.93;0.40;;;;;;;15.95;100.00;101217.66;5019274;28;20026;-47
2024/01/30 00:25:09;;;;;;;4.05;0.45;;;;;;;15.79;100.00;101211.72;5020076;28;20065;-46
2024/01/30 00:27:35;;;;;;;1.67;0.68;;;;;;;16.00;100.00;101220.53;5024404;28;20053;-45
2024/01/30 00:30:00;;;;;;;3.33;0.55;;;;;;;16.17;100.00;101223.59;5018945;28;20030;-46
2024/01/30 00:32:25;;;;;;;3.65;0.98;;;;;;;16.28;100.00;101212.25;5017493;28;20043;-46
2024/01/30 00:34:51;;;;;;;7.55;0.80;;;;;;;16.22;100.00;101216.59;5016000;28;20063;-45
2024/01/30 00:37:16;;;;;;;4.43;0.85;;;;;;;15.84;100.00;101219.94;5018622;28;20045;-44
2024/01/30 00:39:41;;;;;;;4.25;1.33;;;;;;;16.29;100.00;101211.22;5015769;28;20037;-48
2024/01/30 00:42:07;;;;;;;4.63;0.60;;;;;;;16.28;100.00;101191.66;5014992;28;20114;-46
2024/01/30 00:44:35;;;;;;;2.40;0.60;;;;;;;16.03;100.00;101193.38;5015845;28;21069;-45
2024/01/30 00:47:01;;;;;;;4.18;0.20;;;;;;;16.06;100.00;101195.66;5017569;28;20113;-46
2024/01/30 00:49:26;;;;;;;5.55;0.43;;;;;;;16.07;100.00;101203.44;5013173;28;20157;-46
2024/01/30 00:51:51;;;;;;;4.97;1.63;;;;;;;15.95;100.00;101196.28;5021762;28;20041;-48
2024/01/30 00:54:17;;;;;;;2.83;0.77;;;;;;;15.89;100.00;101184.56;5016259;28;20113;-45
2024/01/30 00:56:42;;;;;;;10.50;2.72;;;;;;;15.73;100.00;101196.53;5018225;28;20116;-48
2024/01/30 00:59:08;;;;;;;1.30;0.95;;;;;;;15.84;100.00;101190.53;5016829;28;20056;-48
2024/01/30 01:01:33;;;;;;;6.45;0.75;;;;;;;15.89;100.00;101195.25;5015100;28;20079;-45
2024/01/30 01:03:58;;;;;;;4.55;0.77;;;;;;;15.79;100.00;101187.66;5019878;28;20386;-46
2024/01/30 01:06:24;;;;;;;4.05;0.85;;;;;;;15.51;100.00;101187.84;5012561;28;20034;-45
2024/01/30 01:08:49;;;;;;;7.00;2.45;;;;;;;15.84;100.00;101193.19;5020404;28;20473;-47
2024/01/30 01:11:15;;;;;;;4.45;1.17;;;;;;;15.92;100.00;101213.56;5017053;28;20110;-46
2024/01/30 01:13:40;;;;;;;2.08;0.75;;;;;;;15.60;100.00;101208.00;5016457;28;20026;-45
2024/01/30 01:16:06;;;;;;;5.07;0.32;;;;;;;15.69;100.00;101203.31;5019897;28;20065;-47
2024/01/30 01:18:31;;;;;;;5.05;0.50;;;;;;;15.70;100.00;101203.09;5013433;28;20049;-47
2024/01/30 01:20:56;;;;;;;3.83;1.20;;;;;;;15.44;100.00;101235.16;5011179;28;20048;-45
2024/01/30 01:23:22;;;;;;;2.63;0.70;;;;;;;15.66;100.00;101231.22;5019741;28;20037;-49
2024/01/30 01:25:47;;;;;;;2.15;0.10;;;;;;;15.75;100.00;101225.69;5011348;28;20057;-48
2024/01/30 01:28:12;;;;;;;0.68;0.17;;;;;;;15.56;100.00;101217.47;5011315;28;20109;-44
2024/01/30 01:30:39;;;;;;;6.53;0.77;;;;;;;15.53;100.00;101215.19;5018868;28;20048;-46
2024/01/30 01:33:04;;;;;;;3.78;0.22;;;;;;;15.54;100.00;101211.53;5017403;28;20042;-50
2024/01/30 01:35:29;;;;;;;3.55;1.65;;;;;;;15.25;100.00;101234.09;5015626;28;20029;-47
2024/01/30 01:37:55;;;;;;;0.30;0.30;;;;;;;15.38;100.00;101226.09;5016961;28;20071;-44
2024/01/30 01:40:27;;;;;;;0.22;0.00;;;;;;;15.15;100.00;101228.31;5012443;28;20041;-48
2024/01/30 01:42:54;;;;;;;0.73;0.00;;;;;;;15.22;100.00;101231.84;5016913;28;20486;-47
2024/01/30 01:45:20;;;;;;;3.05;0.20;;;;;;;15.33;100.00;101225.06;5015226;28;20029;-47
2024/01/30 01:47:48;;;;;;;1.58;0.03;;;;;;;15.17;100.00;101243.13;5018422;28;20042;-48
2024/01/30 01:50:18;;;;;;;1.80;0.10;;;;;;;15.15;100.00;101244.34;5015366;28;20044;-48
2024/01/30 01:52:44;;;;;;;0.45;0.13;;;;;;;15.16;100.00;101243.34;5013488;28;20030;-44
2024/01/30 01:55:12;;;;;;;1.17;0.00;;;;;;;14.90;100.00;101236.09;5015021;28;20060;-46
2024/01/30 01:57:38;;;;;;;0.77;0.10;;;;;;;15.01;100.00;101240.84;5013461;28;20033;-47
2024/01/30 02:00:04;;;;;;;1.27;0.20;;;;;;;14.85;100.00;101255.38;5017463;28;20536;-45
2024/01/30 02:02:35;;;;;;;3.00;0.30;;;;;;;14.65;100.00;101244.63;5017377;28;20452;-46
2024/01/30 02:05:01;;;;;;;1.75;0.30;;;;;;;14.80;100.00;101244.47;5012550;28;20036;-45
2024/01/30 02:07:28;;;;;;;3.35;0.03;;;;;;;14.64;100.00;101237.66;5016235;28;20438;-48
2024/01/30 02:09:53;;;;;;;0.25;0.00;;;;;;;14.73;100.00;101236.44;5016605;28;20065;-48
2024/01/30 02:12:18;;;;;;;3.95;0.00;;;;;;;14.71;100.00;101246.47;5015822;28;20037;-46
2024/01/30 02:14:46;;;;;;;0.60;0.00;;;;;;;14.50;100.00;101246.56;5010257;28;20033;-47
2024/01/30 02:17:11;;;;;;;2.83;0.10;;;;;;;14.43;100.00;101251.88;5018440;28;20045;-45
2024/01/30 02:19:37;;;;;;;2.38;0.08;;;;;;;14.62;100.00;101250.34;5013508;28;20049;-47
2024/01/30 02:22:03;;;;;;;1.17;0.00;;;;;;;14.56;100.00;101243.97;5018538;28;20029;-50
2024/01/30 02:24:28;;;;;;;1.98;0.00;;;;;;;14.60;100.00;101250.53;5018588;28;20036;-50
2024/01/30 02:26:53;;;;;;;2.35;1.00;;;;;;;14.43;100.00;101251.88;5016034;28;20115;-52
2024/01/30 02:29:19;;;;;;;0.10;0.00;;;;;;;14.88;100.00;101246.97;5016865;28;20390;-50
2024/01/30 02:31:45;;;;;;;1.67;0.55;;;;;;;14.58;100.00;101246.44;5019385;28;20069;-46
2024/01/30 02:34:11;;;;;;;1.45;0.20;;;;;;;14.59;100.00;101248.91;5017052;28;20048;-49
2024/01/30 02:36:36;;;;;;;1.73;0.00;;;;;;;14.57;100.00;101245.59;5008192;28;20025;-49
2024/01/30 02:39:03;;;;;;;1.48;0.00;;;;;;;14.50;100.00;101243.91;5017701;28;20029;-48
2024/01/30 02:41:28;;;;;;;3.42;0.05;;;;;;;14.59;100.00;101245.44;5017877;28;20036;-49
2024/01/30 02:43:54;;;;;;;1.70;1.00;;;;;;;14.19;100.00;101255.84;5008692;28;20030;-47
2024/01/30 02:46:19;;;;;;;2.47;0.60;;;;;;;14.51;100.00;101258.91;5012512;28;20033;-49
2024/01/30 02:48:44;;;;;;;2.28;0.00;;;;;;;14.54;100.00;101250.53;5015391;28;20064;-53
2024/01/30 02:51:10;;;;;;;0.93;0.00;;;;;;;14.75;100.00;101247.75;5014719;28;20558;-49
2024/01/30 02:53:35;;;;;;;1.02;0.00;;;;;;;14.70;100.00;101239.50;5018837;28;20112;-47
2024/01/30 02:56:02;;;;;;;0.00;0.00;;;;;;;14.50;100.00;101239.38;5015613;28;20116;-49
2024/01/30 02:58:28;;;;;;;0.32;0.00;;;;;;;14.49;100.00;101245.75;5015132;28;20509;-48
2024/01/30 03:00:53;;;;;;;0.43;0.10;;;;;;;14.34;100.00;101247.72;5011211;28;20029;-49
2024/01/30 03:03:18;;;;;;;2.95;1.35;;;;;;;14.52;100.00;101247.19;5018083;28;20033;-46
2024/01/30 03:05:43;;;;;;;0.17;0.00;;;;;;;14.69;100.00;101250.38;5015230;28;20037;-48
2024/01/30 03:08:09;;;;;;;0.20;0.20;;;;;;;14.52;100.00;101248.00;5017451;28;20033;-50
2024/01/30 03:10:34;;;;;;;0.52;0.00;;;;;;;14.38;100.00;101249.00;5011010;28;20056;-52
2024/01/30 03:13:00;;;;;;;1.25;1.15;;;;;;;14.30;100.00;101254.47;5012851;28;20746;-54
2024/01/30 03:15:25;;;;;;;0.90;0.00;;;;;;;14.29;100.00;101255.50;5016070;28;20040;-53
2024/01/30 03:17:50;;;;;;;0.80;0.00;;;;;;;14.30;100.00;101247.31;5015290;28;20026;-52
2024/01/30 03:20:15;;;;;;;1.95;0.00;;;;;;;14.27;100.00;101246.84;5011079;28;20033;-52
2024/01/30 03:22:41;;;;;;;0.45;0.00;;;;;;;14.29;100.00;101244.81;5014838;28;20075;-53
2024/01/30 03:25:07;;;;;;;1.65;0.00;;;;;;;14.22;100.00;101246.63;5014554;28;20029;-51
2024/01/30 03:27:32;;;;;;;0.00;0.00;;;;;;;14.28;100.00;101238.66;5020191;28;20095;-49
2024/01/30 03:29:57;;;;;;;1.45;1.15;;;;;;;14.29;100.00;101236.81;5017824;28;20360;-52
2024/01/30 03:32:22;;;;;;;0.32;0.00;;;;;;;14.14;100.00;101248.41;5013858;28;20056;-52
2024/01/30 03:34:48;;;;;;;2.00;0.10;;;;;;;14.05;100.00;101246.94;5016321;28;20033;-51
2024/01/30 03:37:13;;;;;;;0.47;0.20;;;;;;;14.11;100.00;101262.16;5019144;28;20017;-47
2024/01/30 03:39:39;;;;;;;0.10;0.10;;;;;;;14.25;100.00;101262.22;5016570;28;20116;-50
2024/01/30 03:42:04;;;;;;;0.10;0.00;;;;;;;14.19;100.00;101262.00;5015015;28;20121;-48
2024/01/30 03:44:29;;;;;;;0.00;0.00;;;;;;;14.13;100.00;101257.44;5019746;28;20122;-48
2024/01/30 03:46:54;;;;;;;0.45;0.00;;;;;;;14.27;100.00;101261.00;5018001;28;20060;-47
2024/01/30 03:49:20;;;;;;;0.05;0.00;;;;;;;14.21;100.00;101263.66;5024440;28;20036;-49
2024/01/30 03:51:47;;;;;;;0.40;0.00;;;;;;;14.29;100.00;101268.84;5013686;28;20072;-50
2024/01/30 03:54:12;;;;;;;0.08;0.00;;;;;;;14.31;100.00;101258.78;5002547;28;20045;-51
2024/01/30 03:56:38;;;;;;;0.08;0.00;;;;;;;14.24;100.00;101264.06;5020092;28;20049;-50
2024/01/30 03:59:03;;;;;;;0.00;0.00;;;;;;;14.08;100.00;101259.88;5023787;28;20044;-51
2024/01/30 04:01:28;;;;;;;1.98;0.00;;;;;;;14.23;100.00;101265.09;5014990;28;20075;-47
2024/01/30 04:03:54;;;;;;;1.42;0.30;;;;;;;14.07;100.00;101263.56;5021080;28;20036;-46
2024/01/30 04:06:19;;;;;;;1.45;0.00;;;;;;;14.20;100.00;101270.84;5020713;28;20021;-47
2024/01/30 04:08:44;;;;;;;2.40;0.00;;;;;;;14.09;100.00;101271.38;5014632;28;20072;-48
2024/01/30 04:11:10;;;;;;;0.57;0.43;;;;;;;14.17;100.00;101266.72;5021198;28;20146;-48
2024/01/30 04:13:35;;;;;;;1.27;0.00;;;;;;;14.18;100.00;101268.34;5019708;28;20124;-49
2024/01/30 04:16:02;;;;;;;0.57;0.00;;;;;;;14.14;100.00;101259.09;5020680;28;20021;-47
2024/01/30 04:18:28;;;;;;;0.00;0.00;;;;;;;14.23;100.00;101264.28;5015471;28;20511;-47
2024/01/30 04:20:53;;;;;;;0.10;0.00;;;;;;;14.16;100.00;101258.91;5020158;28;20323;-48
2024/01/30 04:23:19;;;;;;;0.85;0.32;;;;;;;14.28;100.00;101270.69;5012155;28;20057;-48
2024/01/30 04:25:44;;;;;;;0.00;0.00;;;;;;;14.28;100.00;101267.19;5010326;28;20116;-51
2024/01/30 04:28:11;;;;;;;0.20;0.00;;;;;;;14.24;100.00;101266.75;5020312;28;20077;-47
2024/01/30 04:30:37;;;;;;;1.88;0.17;;;;;;;14.18;100.00;101294.22;5016674;28;20036;-47
2024/01/30 04:33:03;;;;;;;2.60;0.85;;;;;;;14.21;100.00;101288.47;5016355;28;20495;-48
2024/01/30 04:35:28;;;;;;;0.30;0.00;;;;;;;14.04;100.00;101298.59;5021273;28;20043;-49
2024/01/30 04:37:54;;;;;;;0.40;0.00;;;;;;;14.19;100.00;101302.00;5018025;28;20913;-46
2024/01/30 04:40:20;;;;;;;2.08;0.00;;;;;;;14.08;100.00;101302.53;5017579;28;20040;-46
2024/01/30 04:42:46;;;;;;;0.05;0.00;;;;;;;14.30;100.00;101302.47;5011608;28;20032;-47
2024/01/30 04:45:11;;;;;;;0.00;0.00;;;;;;;14.29;100.00;101312.31;5015233;28;20372;-46
2024/01/30 04:47:37;;;;;;;0.00;0.00;;;;;;;13.78;100.00;101325.06;5012414;28;20072;-47
2024/01/30 04:50:04;;;;;;;1.38;0.00;;;;;;;13.71;100.00;101323.16;5017373;28;20033;-48
2024/01/30 04:52:30;;;;;;;0.93;0.00;;;;;;;13.52;100.00;101329.13;5016243;28;20485;-47
2024/01/30 04:54:55;;;;;;;0.00;0.00;;;;;;;13.58;100.00;101341.69;5020572;28;20068;-49
2024/01/30 04:57:20;;;;;;;0.03;0.03;;;;;;;13.44;100.00;101345.22;5015387;28;20383;-47
2024/01/30 04:59:46;;;;;;;0.00;0.00;;;;;;;13.44;100.00;101347.88;5011989;28;20116;-47
2024/01/30 05:02:11;;;;;;;0.68;0.60;;;;;;;13.12;100.00;101344.63;5013021;28;20113;-47
2024/01/30 05:04:36;;;;;;;0.30;0.00;;;;;;;13.39;100.00;101353.78;5020344;28;20036;-47
2024/01/30 05:07:02;;;;;;;1.55;0.20;;;;;;;13.07;100.00;101360.34;5015563;28;20064;-50
2024/01/30 05:09:28;;;;;;;0.10;0.10;;;;;;;12.97;100.00;101354.47;5020818;28;20713;-46
2024/01/30 05:11:53;;;;;;;0.25;0.25;;;;;;;12.97;100.00;101354.47;5017862;28;20054;-47
2024/01/30 05:14:19;;;;;;;0.20;0.08;;;;;;;12.76;100.00;101369.34;5016606;28;20033;-48
2024/01/30 05:16:46;;;;;;;0.20;0.20;;;;;;;12.47;100.00;101374.66;5016562;28;20109;-49
2024/01/30 05:19:15;;;;;;;0.30;0.20;;;;;;;12.54;100.00;101378.25;5022090;28;20068;-46
2024/01/30 05:21:41;;;;;;;2.15;0.22;;;;;;;12.61;100.00;101393.28;5019621;28;20029;-47
2024/01/30 05:24:06;;;;;;;0.22;0.22;;;;;;;12.66;100.00;101398.06;5022084;28;20167;-49
2024/01/30 05:26:32;;;;;;;1.38;0.10;;;;;;;12.68;100.00;101403.22;5014694;28;20504;-48
2024/01/30 05:28:57;;;;;;;1.00;1.00;;;;;;;12.42;100.00;101405.28;5021503;28;20025;-46
2024/01/30 05:31:23;;;;;;;1.35;0.50;;;;;;;12.46;100.00;101396.94;5016364;28;20029;-49
2024/01/30 05:33:48;;;;;;;0.13;0.13;;;;;;;12.58;100.00;101401.63;5018509;28;20120;-46
2024/01/30 05:36:14;;;;;;;2.25;0.57;;;;;;;12.50;100.00;101406.22;5018813;28;20033;-46
2024/01/30 05:38:39;;;;;;;0.45;0.45;;;;;;;12.32;100.00;101422.50;5013204;28;20034;-46
2024/01/30 05:41:05;;;;;;;1.13;0.30;;;;;;;12.23;100.00;101435.03;5015047;28;20059;-46
2024/01/30 05:43:30;;;;;;;0.35;0.30;;;;;;;12.41;100.00;101426.72;5021471;28;20148;-48
2024/01/30 05:45:55;;;;;;;1.33;0.25;;;;;;;12.40;100.00;101431.22;5015943;28;20033;-46
2024/01/30 05:48:21;;;;;;;0.80;0.40;;;;;;;12.60;100.00;101438.72;5020166;28;20034;-46
2024/01/30 05:50:46;;;;;;;0.40;0.20;;;;;;;12.69;100.00;101448.25;5016967;28;20036;-48
2024/01/30 05:53:11;;;;;;;0.17;0.13;;;;;;;12.82;100.00;101442.31;5019221;28;20045;-46
2024/01/30 05:55:37;;;;;;;0.57;0.38;;;;;;;12.53;100.00;101453.75;5020548;28;20112;-48
2024/01/30 05:58:03;;;;;;;0.17;0.17;;;;;;;12.54;100.00;101456.19;5012070;28;20502;-47
2024/01/30 06:00:29;;;;;;;0.90;0.10;;;;;;;12.42;100.00;101463.81;5015319;28;20034;-48
2024/01/30 06:02:54;;;;;;;0.60;0.10;;;;;;;12.50;100.00;101475.38;5020577;28;20029;-47
2024/01/30 06:05:19;;;;;;;0.30;0.08;;;;;;;12.36;100.00;101469.81;5019130;28;20068;-49
2024/01/30 06:07:45;;;;;;;0.38;0.00;;;;;;;12.16;100.00;101471.34;5014531;28;20033;-46
2024/01/30 06:10:10;;;;;;;0.28;0.00;;;;;;;11.91;100.00;101486.59;5018844;28;20056;-48
2024/01/30 06:12:36;;;;;;;0.00;0.00;;;;;;;12.20;100.00;101492.03;5020021;28;20033;-47
2024/01/30 06:15:01;;;;;;;0.00;0.00;;;;;;;11.95;100.00;101494.06;5017601;28;20025;-47
2024/01/30 06:17:28;;;;;;;0.00;0.00;;;;;;;11.99;100.00;101490.03;5014457;28;20040;-47
2024/01/30 06:19:53;;;;;;;0.00;0.00;;;;;;;12.08;100.00;101495.28;5019599;28;20028;-48
2024/01/30 06:22:18;;;;;;;0.47;0.28;;;;;;;12.18;100.00;101506.53;5020729;28;20064;-48
2024/01/30 06:24:44;;;;;;;0.00;0.00;;;;;;;12.00;100.00;101504.13;5015327;28;20088;-45
2024/01/30 06:27:10;;;;;;;0.00;0.00;;;;;;;12.04;100.00;101517.94;5020394;28;20041;-48
2024/01/30 06:29:35;;;;;;;0.00;0.00;;;;;;;12.22;100.00;101521.13;5014772;28;20025;-49
2024/01/30 06:32:01;;;;;;;0.00;0.00;;;;;;;12.30;100.00;101523.72;5017280;28;20038;-47
2024/01/30 06:34:26;;;;;;;0.00;0.00;;;;;;;12.26;100.00;101527.72;5019312;28;20025;-47
2024/01/30 06:36:52;;;;;;;0.00;0.00;;;;;;;12.45;100.00;101542.41;5013679;28;20054;-49
2024/01/30 06:39:18;;;;;;;0.00;0.00;;;;;;;12.35;100.00;101542.63;5019680;28;20033;-48
2024/01/30 06:41:43;;;;;;;0.00;0.00;;;;;;;12.51;100.00;101548.84;5021018;28;20441;-47
2024/01/30 06:44:08;;;;;;;1.00;0.00;;;;;;;12.65;100.00;101542.78;5009965;28;20034;-46
2024/01/30 06:46:34;;;;;;;0.00;0.00;;;;;;;12.51;100.00;101567.47;5011311;28;20034;-46
2024/01/30 06:48:59;;;;;;;0.10;0.10;;;;;;;12.61;100.00;101571.53;5012441;28;20037;-47
2024/01/30 06:51:25;;;;;;;0.00;0.00;;;;;;;12.72;100.00;101575.63;5016174;28;20442;-47
2024/01/30 06:53:50;;;;;;;0.20;0.00;;;;;;;12.76;100.00;101582.25;5016107;28;20036;-50
2024/01/30 06:56:20;;;;;;;0.00;0.00;;;;;;;12.70;100.00;101604.25;5017856;28;20052;-48
2024/01/30 06:58:46;;;;;;;0.00;0.00;;;;;;;12.31;100.00;101599.00;5016719;28;20029;-49
2024/01/30 07:01:11;;;;;;;0.00;0.00;;;;;;;12.18;100.00;101595.13;5017660;28;20293;-48
2024/01/30 07:03:37;;;;;;;0.20;0.00;;;;;;;12.22;100.00;101596.41;5019469;28;20033;-49
2024/01/30 07:06:02;;;;;;;0.80;0.00;;;;;;;12.35;100.00;101597.66;5014772;28;20101;-50
2024/01/30 07:08:27;;;;;;;0.00;0.00;;;;;;;12.09;100.00;101605.94;5010661;28;20041;-48
2024/01/30 07:10:55;;;;;;;0.00;0.00;;;;;;;11.97;100.00;101605.50;5018373;28;20041;-47
2024/01/30 07:13:20;;;;;;;0.00;0.00;;;;;;;12.26;100.00;101617.31;5018813;28;20082;-49
2024/01/30 07:15:46;;;;;;;0.00;0.00;;;;;;;11.98;100.00;101617.81;5019909;28;20033;-50
2024/01/30 07:18:13;;;;;;;0.00;0.00;;;;;;;12.18;100.00;101623.50;5011500;28;20271;-50
2024/01/30 07:20:45;;;;;;;0.00;0.00;;;;;;;12.05;100.00;101628.56;4995336;28;20049;-52
2024/01/30 07:23:13;;;;;;;0.00;0.00;;;;;;;12.00;100.00;101626.41;5007584;28;20065;-51
2024/01/30 07:25:41;;;;;;;0.00;0.00;;;;;;;12.38;100.00;101634.53;4999690;28;20041;-48
2024/01/30 07:28:07;;;;;;;0.00;0.00;;;;;;;12.29;100.00;101635.56;5018155;28;20033;-49
2024/01/30 07:30:32;;;;;;;0.00;0.00;;;;;;;12.30;100.00;101642.56;5017003;28;20041;-49
2024/01/30 07:32:57;;;;;;;0.70;0.00;;;;;;;12.28;100.00;101645.41;5019183;28;20033;-49
2024/01/30 07:35:23;;;;;;;0.20;0.00;;;;;;;12.28;100.00;101657.88;5023030;28;20662;-50
2024/01/30 07:37:48;;;;;;;1.45;0.00;;;;;;;12.39;100.00;101663.63;5022475;28;20043;-50
2024/01/30 07:40:14;;;;;;;0.10;0.03;;;;;;;12.31;100.00;101663.66;5020713;28;20091;-52
2024/01/30 07:42:39;;;;;;;0.00;0.00;;;;;;;12.25;100.00;101663.53;5005592;28;20033;-50
2024/01/30 07:45:05;;;;;;;0.00;0.00;;;;;;;12.15;100.00;101669.06;5014669;28;20067;-52
2024/01/30 07:47:30;;;;;;;0.00;0.00;;;;;;;12.00;100.00;101676.91;5020005;28;20053;-50
2024/01/30 07:49:55;;;;;;;0.00;0.00;;;;;;;12.01;100.00;101689.22;5024269;28;20085;-48
2024/01/30 07:52:21;;;;;;;0.10;0.00;;;;;;;11.87;100.00;101693.38;5014461;28;20108;-49
2024/01/30 07:54:46;;;;;;;0.43;0.00;;;;;;;12.11;100.00;101697.00;5020933;28;20021;-49
2024/01/30 07:57:11;;;;;;;0.00;0.00;;;;;;;11.95;100.00;101705.81;5013199;28;20172;-52
2024/01/30 07:59:37;;;;;;;0.30;0.00;;;;;;;11.72;100.00;101713.66;5024045;28;20482;-47
2024/01/30 08:02:03;;;;;;;1.70;0.20;;;;;;;11.75;100.00;101716.00;5019216;28;20025;-47
2024/01/30 08:04:29;;;;;;;0.00;0.00;;;;;;;11.76;100.00;101722.94;5019633;28;20030;-51
2024/01/30 08:06:54;;;;;;;4.40;0.10;;;;;;;11.56;100.00;101725.13;5018083;28;20030;-47
2024/01/30 08:09:19;;;;;;;0.00;0.00;;;;;;;11.38;100.00;101719.97;5016510;28;20036;-48
2024/01/30 08:11:45;;;;;;;0.05;0.00;;;;;;;11.18;100.00;101732.78;5021651;28;20144;-47
2024/01/30 08:14:10;;;;;;;0.98;0.98;;;;;;;11.46;100.00;101743.91;5015506;28;20109;-47
2024/01/30 08:16:35;;;;;;;0.32;0.00;;;;;;;11.54;100.00;101740.41;5009960;28;20049;-48
2024/01/30 08:19:01;;;;;;;0.00;0.00;;;;;;;11.58;100.00;101747.88;5021137;28;20521;-48
2024/01/30 08:21:26;;;;;;;0.13;0.00;;;;;;;11.60;100.00;101746.88;5015367;28;20498;-49
2024/01/30 08:23:52;;;;;;;0.00;0.00;;;;;;;11.72;100.00;101742.88;5021116;28;20601;-48
2024/01/30 08:26:17;;;;;;;0.00;0.00;;;;;;;11.75;100.00;101755.84;5014535;28;20076;-48
2024/01/30 08:28:43;;;;;;;0.05;0.05;;;;;;;11.46;100.00;101753.69;5021064;28;20026;-50
2024/01/30 08:31:10;;;;;;;0.10;0.00;;;;;;;11.24;100.00;101760.47;5006147;28;20422;-48
2024/01/30 08:33:36;;;;;;;0.43;0.43;;;;;;;11.71;100.00;101754.50;5004598;28;20033;-48
2024/01/30 08:36:01;;;;;;;0.00;0.00;;;;;;;11.65;100.00;101771.94;5018789;28;20040;-48
2024/01/30 08:38:26;;;;;;;0.10;0.05;;;;;;;11.62;100.00;101771.47;5016952;28;20045;-48
2024/01/30 08:40:52;;;;;;;2.15;0.00;;;;;;;11.63;100.00;101768.63;5015650;28;20518;-51
2024/01/30 08:43:17;;;;;;;1.15;0.03;;;;;;;11.70;100.00;101766.97;5014845;28;20593;-50
2024/01/30 08:45:42;;;;;;;0.00;0.00;;;;;;;11.65;100.00;101774.59;5018665;28;20182;-50
2024/01/30 08:48:08;;;;;;;0.57;0.00;;;;;;;11.76;100.00;101776.09;5009328;28;20037;-47
2024/01/30 08:50:33;;;;;;;0.03;0.03;;;;;;;11.92;100.00;101777.94;5005783;28;20087;-47
2024/01/30 08:52:58;;;;;;;0.00;0.00;;;;;;;12.09;100.00;101781.41;5011812;28;20068;-48
2024/01/30 08:55:24;;;;;;;0.00;0.00;;;;;;;12.21;100.00;101790.69;5013096;28;20041;-52
2024/01/30 08:57:49;;;;;;;3.50;0.25;;;;;;;12.30;100.00;101797.63;5018189;28;20266;-51
2024/01/30 09:00:15;;;;;;;0.52;0.00;;;;;;;12.22;100.00;101802.97;5019127;28;20033;-48
2024/01/30 09:02:40;;;;;;;0.00;0.00;;;;;;;12.14;100.00;101810.97;5018124;28;20378;-48
2024/01/30 09:05:06;;;;;;;0.00;0.00;;;;;;;11.97;100.00;101812.81;5023100;28;20034;-48
2024/01/30 09:07:31;;;;;;;0.52;0.00;;;;;;;11.67;100.00;101811.63;5014956;28;20394;-52
2024/01/30 09:09:57;;;;;;;0.00;0.00;;;;;;;12.09;100.00;101818.63;5024899;28;20454;-46
2024/01/30 09:12:22;;;;;;;0.08;0.00;;;;;;;12.25;100.00;101823.91;5014776;28;20040;-48
2024/01/30 09:14:47;;;;;;;0.35;0.17;;;;;;;12.23;100.00;101826.72;5027879;28;20037;-46
2024/01/30 09:17:13;;;;;;;0.00;0.00;;;;;;;12.58;100.00;101834.47;5015345;28;20053;-47
2024/01/30 09:19:38;;;;;;;1.95;1.27;;;;;;;12.77;100.00;101831.41;5020874;28;20037;-50
2024/01/30 09:22:04;;;;;;;0.03;0.00;;;;;;;12.62;100.00;101838.44;5009183;28;20415;-48
2024/01/30 09:24:29;;;;;;;1.17;0.00;;;;;;;12.60;100.00;101832.47;5018671;28;20611;-48
2024/01/30 09:26:54;;;;;;;0.00;0.00;;;;;;;12.74;100.00;101834.41;5019167;28;20029;-51
2024/01/30 09:29:20;;;;;;;0.43;0.00;;;;;;;12.92;100.00;101844.00;5022189;28;20068;-48
2024/01/30 09:31:46;;;;;;;0.00;0.00;;;;;;;12.71;100.00;101856.06;5009489;28;20033;-48
2024/01/30 09:34:12;;;;;;;1.27;0.65;;;;;;;12.83;100.00;101864.47;5018278;28;20063;-49
2024/01/30 09:36:37;;;;;;;0.00;0.00;;;;;;;12.68;100.00;101866.22;5018684;28;20477;-51
2024/01/30 09:39:03;;;;;;;0.30;0.30;;;;;;;12.89;100.00;101866.47;5018396;28;20029;-48
2024/01/30 09:41:32;;;;;;;0.35;0.10;;;;;;;13.10;100.00;101869.34;5015827;28;20064;-48
2024/01/30 09:43:57;;;;;;;0.00;0.00;;;;;;;13.15;100.00;101878.69;5018985;28;20029;-49
2024/01/30 09:46:27;;;;;;;0.00;0.00;;;;;;;11.47;100.00;101882.84;5018088;28;20037;-48
2024/01/30 09:48:53;;;;;;;0.00;0.00;;;;;;;10.35;100.00;101894.41;5019261;28;20092;-47
2024/01/30 09:51:20;;;;;;;0.00;0.00;;;;;;;11.22;100.00;101901.34;5016903;28;20053;-49
2024/01/30 09:53:46;;;;;;;0.40;0.00;;;;;;;12.17;100.00;101893.06;5021178;28;20037;-49
2024/01/30 09:56:16;;;;;;;0.30;0.00;;;;;;;12.46;100.00;101897.03;5022820;28;20026;-47
2024/01/30 09:58:42;;;;;;;0.00;0.00;;;;;;;12.59;100.00;101894.66;5010533;28;20029;-49
2024/01/30 10:01:07;;;;;;;0.98;0.00;;;;;;;12.58;100.00;101907.13;5014360;28;20483;-51
2024/01/30 10:03:32;;;;;;;2.20;0.20;;;;;;;12.50;100.00;101906.34;5010058;28;20085;-48
2024/01/30 10:05:58;;;;;;;1.00;0.00;;;;;;;12.53;100.00;101920.13;5015476;28;20045;-47
2024/01/30 10:08:25;;;;;;;0.95;0.00;;;;;;;12.12;100.00;101921.97;5013190;28;20033;-48
2024/01/30 10:10:51;;;;;;;1.85;0.00;;;;;;;12.04;100.00;101933.44;5015430;28;20056;-47
2024/01/30 10:13:17;;;;;;;0.00;0.00;;;;;;;12.23;100.00;101954.38;5010109;28;20034;-47
2024/01/30 10:15:42;;;;;;;0.00;0.00;;;;;;;11.87;100.00;101940.53;5018691;28;20030;-48
2024/01/30 10:18:11;;;;;;;0.00;0.00;;;;;;;11.92;100.00;101930.25;5014880;28;20524;-46
2024/01/30 10:20:36;;;;;;;0.00;0.00;;;;;;;12.31;100.00;101945.56;5022234;28;20079;-50
2024/01/30 10:23:03;;;;;;;0.35;0.35;;;;;;;12.24;100.00;101941.94;5018887;28;20741;-47
2024/01/30 10:25:29;;;;;;;3.40;0.00;;;;;;;12.10;100.00;101950.56;5014075;28;20070;-51
2024/01/30 10:27:58;;;;;;;0.25;0.00;;;;;;;12.38;100.00;101949.22;5003034;28;20101;-46
2024/01/30 10:30:24;;;;;;;0.40;0.00;;;;;;;12.10;100.00;101970.00;5012145;28;20037;-49
2024/01/30 10:32:49;;;;;;;0.03;0.00;;;;;;;11.95;100.00;101974.28;5017857;28;20029;-48
2024/01/30 10:35:15;;;;;;;0.20;0.00;;;;;;;11.95;100.00;101987.56;5007337;28;20064;-48
2024/01/30 10:37:43;;;;;;;0.52;0.10;;;;;;;11.79;100.00;101983.84;5007786;28;20065;-47
2024/01/30 10:40:12;;;;;;;0.00;0.00;;;;;;;12.22;100.00;101997.94;5013106;28;20080;-49
2024/01/30 10:42:42;;;;;;;0.17;0.17;;;;;;;11.82;100.00;101988.00;5010645;28;20083;-48
2024/01/30 10:45:12;;;;;;;0.45;0.00;;;;;;;12.07;100.00;101993.41;5007849;28;20051;-51
2024/01/30 10:47:57;;;;;;;0.82;0.00;;;;;;;11.81;100.00;102002.31;5010097;28;20029;-48
2024/01/30 10:50:24;;;;;;;0.00;0.00;;;;;;;12.35;100.00;102013.41;5013098;28;20122;-47
2024/01/30 10:52:50;;;;;;;0.40;0.40;;;;;;;12.32;100.00;102015.56;5018215;28;20024;-50
2024/01/30 10:55:15;;;;;;;0.30;0.25;;;;;;;12.51;100.00;102020.53;5018048;28;20025;-51
2024/01/30 10:57:41;;;;;;;1.63;0.45;;;;;;;12.70;100.00;102016.72;5022820;28;20063;-50
2024/01/30 11:00:10;;;;;;;2.35;0.43;;;;;;;12.78;100.00;102029.22;5025821;28;20614;-51
2024/01/30 11:02:41;;;;;;;2.17;0.90;;;;;;;12.59;100.00;102033.03;5022339;28;21408;-47
2024/01/30 11:05:08;;;;;;;8.55;5.40;;;;;;;12.63;100.00;102034.34;5021666;28;20149;-47
2024/01/30 11:07:34;;;;;;;6.22;3.65;;;;;;;12.71;100.00;102023.72;5025216;28;20060;-47
2024/01/30 11:10:02;;;;;;;8.88;5.22;;;;;;;12.57;100.00;102033.19;5024716;28;20104;-47